sensor_id;sensor_type;location;lat;lon;timestamp;pressure;altitude;pressure_sealevel;temperature;humidity
42067;BME280;27734;47.028;28.820;2023-09-19T00:00:41;100920.06;;;18.56;59.04
42067;BME280;27734;47.028;28.820;2023-09-19T00:03:31;100919.13;;;18.54;58.81
42067;BME280;27734;47.028;28.820;2023-09-19T00:05:59;100922.66;;;18.50;58.79
42067;BME280;27734;47.028;28.820;2023-09-19T00:08:28;100919.09;;;18.49;59.25
42067;BME280;27734;47.028;28.820;2023-09-19T00:10:57;100916.39;;;18.46;59.23
42067;BME280;27734;47.028;28.820;2023-09-19T00:13:32;100926.12;;;18.43;59.52
42067;BME280;27734;47.028;28.820;2023-09-19T00:16:01;100936.71;;;18.40;59.40
42067;BME280;27734;47.028;28.820;2023-09-19T00:18:36;100926.03;;;18.35;59.63
42067;BME280;27734;47.028;28.820;2023-09-19T00:21:04;100923.34;;;18.32;59.69
42067;BME280;27734;47.028;28.820;2023-09-19T00:23:33;100931.28;;;18.29;60.07
42067;BME280;27734;47.028;28.820;2023-09-19T00:26:02;100935.68;;;18.25;60.18
42067;BME280;27734;47.028;28.820;2023-09-19T00:28:31;100931.23;;;18.24;60.25
42067;BME280;27734;47.028;28.820;2023-09-19T00:31:00;100925.90;;;18.23;60.22
42067;BME280;27734;47.028;28.820;2023-09-19T00:33:29;100933.83;;;18.20;60.51
42067;BME280;27734;47.028;28.820;2023-09-19T00:35:58;100930.28;;;18.18;60.31
42067;BME280;27734;47.028;28.820;2023-09-19T00:38:27;100932.05;;;18.17;60.65
42067;BME280;27734;47.028;28.820;2023-09-19T00:40:56;100930.24;;;18.14;60.83
42067;BME280;27734;47.028;28.820;2023-09-19T00:43:25;100922.23;;;18.11;60.70
42067;BME280;27734;47.028;28.820;2023-09-19T00:45:57;100916.88;;;18.07;60.92
42067;BME280;27734;47.028;28.820;2023-09-19T00:48:29;100913.32;;;18.05;60.71
42067;BME280;27734;47.028;28.820;2023-09-19T00:51:02;100914.14;;;18.01;61.21
42067;BME280;27734;47.028;28.820;2023-09-19T00:53:33;100913.21;;;17.95;61.51
42067;BME280;27734;47.028;28.820;2023-09-19T00:56:03;100909.61;;;17.92;61.32
42067;BME280;27734;47.028;28.820;2023-09-19T00:58:34;100916.65;;;17.88;61.35
42067;BME280;27734;47.028;28.820;2023-09-19T01:01:03;100911.34;;;17.88;61.58
42067;BME280;27734;47.028;28.820;2023-09-19T01:03:37;100907.77;;;17.88;61.66
42067;BME280;27734;47.028;28.820;2023-09-19T01:06:06;100907.72;;;17.83;61.79
42067;BME280;27734;47.028;28.820;2023-09-19T01:08:36;100915.58;;;17.75;62.12
42067;BME280;27734;47.028;28.820;2023-09-19T01:11:11;100919.92;;;17.69;61.90
42067;BME280;27734;47.028;28.820;2023-09-19T01:13:50;100919.83;;;17.61;62.11
42067;BME280;27734;47.028;28.820;2023-09-19T01:16:31;100916.15;;;17.53;62.30
42067;BME280;27734;47.028;28.820;2023-09-19T01:19:16;100911.69;;;17.49;62.47
42067;BME280;27734;47.028;28.820;2023-09-19T01:21:59;100908.97;;;17.44;62.54
42067;BME280;27734;47.028;28.820;2023-09-19T01:25:07;100907.16;;;17.41;62.86
42067;BME280;27734;47.028;28.820;2023-09-19T01:28:10;100908.95;;;17.42;62.97
42067;BME280;27734;47.028;28.820;2023-09-19T01:30:44;100915.12;;;17.41;62.67
42067;BME280;27734;47.028;28.820;2023-09-19T01:33:14;100906.28;;;17.41;62.90
42067;BME280;27734;47.028;28.820;2023-09-19T01:35:44;100914.19;;;17.38;62.85
42067;BME280;27734;47.028;28.820;2023-09-19T01:38:13;100910.64;;;17.36;63.10
42067;BME280;27734;47.028;28.820;2023-09-19T01:40:45;100912.35;;;17.34;62.97
42067;BME280;27734;47.028;28.820;2023-09-19T01:43:21;100900.00;;;17.34;62.79
42067;BME280;27734;47.028;28.820;2023-09-19T01:45:57;100897.33;;;17.33;63.40
42067;BME280;27734;47.028;28.820;2023-09-19T01:48:35;100893.72;;;17.29;63.36
42067;BME280;27734;47.028;28.820;2023-09-19T01:51:06;100894.56;;;17.25;63.99
42067;BME280;27734;47.028;28.820;2023-09-19T01:53:39;100903.36;;;17.22;63.94
42067;BME280;27734;47.028;28.820;2023-09-19T01:56:12;100894.50;;;17.20;64.05
42067;BME280;27734;47.028;28.820;2023-09-19T01:58:49;100901.56;;;17.21;63.87
42067;BME280;27734;47.028;28.820;2023-09-19T02:01:22;100898.86;;;17.18;63.97
42067;BME280;27734;47.028;28.820;2023-09-19T02:03:54;100898.81;;;17.15;64.31
42067;BME280;27734;47.028;28.820;2023-09-19T02:06:24;100890.81;;;17.12;64.31
42067;BME280;27734;47.028;28.820;2023-09-19T02:08:55;100887.28;;;17.12;64.32
42067;BME280;27734;47.028;28.820;2023-09-19T02:11:24;100885.47;;;17.09;64.49
42067;BME280;27734;47.028;28.820;2023-09-19T02:13:53;100876.63;;;17.09;64.71
42067;BME280;27734;47.028;28.820;2023-09-19T02:16:22;100873.12;;;17.10;64.91
42067;BME280;27734;47.028;28.820;2023-09-19T02:18:50;100870.47;;;17.10;64.81
42067;BME280;27734;47.028;28.820;2023-09-19T02:21:19;100861.58;;;17.07;64.77
42067;BME280;27734;47.028;28.820;2023-09-19T02:23:49;100854.50;;;17.05;64.85
42067;BME280;27734;47.028;28.820;2023-09-19T02:26:19;100855.30;;;17.01;64.88
42067;BME280;27734;47.028;28.820;2023-09-19T02:28:49;100848.16;;;16.97;65.08
42067;BME280;27734;47.028;28.820;2023-09-19T02:31:17;100841.94;;;16.93;64.90
42067;BME280;27734;47.028;28.820;2023-09-19T02:33:46;100843.70;;;16.93;64.74
42067;BME280;27734;47.028;28.820;2023-09-19T02:36:16;100843.68;;;16.91;65.29
42067;BME280;27734;47.028;28.820;2023-09-19T02:38:45;100847.19;;;16.90;65.35
42067;BME280;27734;47.028;28.820;2023-09-19T02:41:14;100835.68;;;16.88;65.57
42067;BME280;27734;47.028;28.820;2023-09-19T02:43:43;100848.02;;;16.87;65.52
42067;BME280;27734;47.028;28.820;2023-09-19T02:46:12;100842.65;;;16.83;65.30
42067;BME280;27734;47.028;28.820;2023-09-19T02:48:41;100841.54;;;16.70;65.12
42067;BME280;27734;47.028;28.820;2023-09-19T02:51:10;100842.17;;;16.53;65.68
42067;BME280;27734;47.028;28.820;2023-09-19T02:53:38;100825.29;;;16.48;65.73
42067;BME280;27734;47.028;28.820;2023-09-19T02:56:07;100835.88;;;16.48;65.43
42067;BME280;27734;47.028;28.820;2023-09-19T02:58:39;100826.17;;;16.47;66.06
42067;BME280;27734;47.028;28.820;2023-09-19T03:01:11;100827.83;;;16.42;65.33
42067;BME280;27734;47.028;28.820;2023-09-19T03:03:41;100829.58;;;16.40;65.97
42067;BME280;27734;47.028;28.820;2023-09-19T03:06:10;100833.08;;;16.39;65.86
42067;BME280;27734;47.028;28.820;2023-09-19T03:08:39;100822.48;;;16.39;66.09
42067;BME280;27734;47.028;28.820;2023-09-19T03:11:10;100825.16;;;16.41;66.01
42067;BME280;27734;47.028;28.820;2023-09-19T03:13:40;100828.70;;;16.40;66.22
42067;BME280;27734;47.028;28.820;2023-09-19T03:16:10;100829.52;;;16.37;66.07
42067;BME280;27734;47.028;28.820;2023-09-19T03:18:38;100832.97;;;16.33;66.28
42067;BME280;27734;47.028;28.820;2023-09-19T03:21:07;100831.05;;;16.23;66.38
42067;BME280;27734;47.028;28.820;2023-09-19T03:23:36;100829.20;;;16.18;66.23
42067;BME280;27734;47.028;28.820;2023-09-19T03:26:06;100824.75;;;16.16;66.39
42067;BME280;27734;47.028;28.820;2023-09-19T03:28:36;100822.05;;;16.13;66.31
42067;BME280;27734;47.028;28.820;2023-09-19T03:31:06;100827.32;;;16.11;66.21
42067;BME280;27734;47.028;28.820;2023-09-19T03:33:37;100826.44;;;16.12;66.40
42067;BME280;27734;47.028;28.820;2023-09-19T03:36:06;100837.02;;;16.12;66.72
42067;BME280;27734;47.028;28.820;2023-09-19T03:38:35;100837.02;;;16.12;66.85
42067;BME280;27734;47.028;28.820;2023-09-19T03:41:04;100836.17;;;16.13;66.80
42067;BME280;27734;47.028;28.820;2023-09-19T03:43:35;100830.00;;;16.13;66.90
42067;BME280;27734;47.028;28.820;2023-09-19T03:46:04;100827.32;;;16.11;66.72
42067;BME280;27734;47.028;28.820;2023-09-19T03:48:33;100818.44;;;16.09;66.80
42067;BME280;27734;47.028;28.820;2023-09-19T03:51:02;100823.67;;;16.06;66.75
42067;BME280;27734;47.028;28.820;2023-09-19T03:53:31;100823.61;;;16.03;67.07
42067;BME280;27734;47.028;28.820;2023-09-19T03:55:59;100820.00;;;15.98;67.33
42067;BME280;27734;47.028;28.820;2023-09-19T03:58:30;100815.53;;;15.95;67.23
42067;BME280;27734;47.028;28.820;2023-09-19T04:00:58;100810.18;;;15.92;67.68
42067;BME280;27734;47.028;28.820;2023-09-19T04:03:28;100816.33;;;15.90;67.71
42067;BME280;27734;47.028;28.820;2023-09-19T04:06:03;100805.69;;;15.87;68.34
42067;BME280;27734;47.028;28.820;2023-09-19T04:08:31;100812.68;;;15.85;68.50
42067;BME280;27734;47.028;28.820;2023-09-19T04:11:00;100809.13;;;15.83;67.58
42067;BME280;27734;47.028;28.820;2023-09-19T04:13:28;100813.59;;;15.85;68.05
42067;BME280;27734;47.028;28.820;2023-09-19T04:15:57;100812.73;;;15.88;68.57
42067;BME280;27734;47.028;28.820;2023-09-19T04:18:26;100816.30;;;15.88;68.75
42067;BME280;27734;47.028;28.820;2023-09-19T04:20:55;100817.20;;;15.90;68.55
42067;BME280;27734;47.028;28.820;2023-09-19T04:23:23;100819.00;;;15.91;68.92
42067;BME280;27734;47.028;28.820;2023-09-19T04:25:53;100817.27;;;15.93;68.37
42067;BME280;27734;47.028;28.820;2023-09-19T04:28:22;100819.09;;;15.96;68.25
42067;BME280;27734;47.028;28.820;2023-09-19T04:30:51;100822.62;;;15.96;68.22
42067;BME280;27734;47.028;28.820;2023-09-19T04:33:19;100823.50;;;15.97;68.94
42067;BME280;27734;47.028;28.820;2023-09-19T04:35:50;100827.15;;;16.02;68.94
42067;BME280;27734;47.028;28.820;2023-09-19T04:38:19;100821.00;;;16.05;68.46
42067;BME280;27734;47.028;28.820;2023-09-19T04:40:48;100828.14;;;16.09;69.27
42067;BME280;27734;47.028;28.820;2023-09-19T04:43:18;100825.61;;;16.15;69.12
42067;BME280;27734;47.028;28.820;2023-09-19T04:45:49;100829.22;;;16.20;68.87
42067;BME280;27734;47.028;28.820;2023-09-19T04:48:19;100831.07;;;16.24;68.84
42067;BME280;27734;47.028;28.820;2023-09-19T04:50:50;100825.86;;;16.29;69.30
42067;BME280;27734;47.028;28.820;2023-09-19T04:53:22;100830.32;;;16.33;69.21
42067;BME280;27734;47.028;28.820;2023-09-19T04:55:52;100840.11;;;16.37;68.54
42067;BME280;27734;47.028;28.820;2023-09-19T04:58:23;100829.55;;;16.39;69.57
42067;BME280;27734;47.028;28.820;2023-09-19T05:00:52;100832.25;;;16.42;69.02
42067;BME280;27734;47.028;28.820;2023-09-19T05:03:21;100824.38;;;16.46;69.35
42067;BME280;27734;47.028;28.820;2023-09-19T05:05:51;100826.25;;;16.52;69.64
42067;BME280;27734;47.028;28.820;2023-09-19T05:08:19;100826.33;;;16.57;69.48
42067;BME280;27734;47.028;28.820;2023-09-19T05:10:50;100825.55;;;16.64;69.15
42067;BME280;27734;47.028;28.820;2023-09-19T05:13:18;100825.66;;;16.71;69.58
42067;BME280;27734;47.028;28.820;2023-09-19T05:15:47;100826.70;;;16.80;69.67
42067;BME280;27734;47.028;28.820;2023-09-19T05:18:16;100833.83;;;16.85;69.62
42067;BME280;27734;47.028;28.820;2023-09-19T05:20:45;100836.59;;;16.90;69.56
42067;BME280;27734;47.028;28.820;2023-09-19T05:23:15;100835.80;;;16.96;69.23
42067;BME280;27734;47.028;28.820;2023-09-19T05:25:43;100827.02;;;17.01;69.24
42067;BME280;27734;47.028;28.820;2023-09-19T05:28:13;100829.78;;;17.09;69.72
42067;BME280;27734;47.028;28.820;2023-09-19T05:30:43;100839.58;;;17.13;69.25
42067;BME280;27734;47.028;28.820;2023-09-19T05:33:13;100837.02;;;17.19;69.66
42067;BME280;27734;47.028;28.820;2023-09-19T05:35:42;100835.33;;;17.26;69.21
42067;BME280;27734;47.028;28.820;2023-09-19T05:38:11;100830.11;;;17.32;69.69
42067;BME280;27734;47.028;28.820;2023-09-19T05:40:46;100827.56;;;17.40;69.53
42067;BME280;27734;47.028;28.820;2023-09-19T05:43:15;100829.44;;;17.47;69.39
42067;BME280;27734;47.028;28.820;2023-09-19T05:45:47;100829.53;;;17.55;69.44
42067;BME280;27734;47.028;28.820;2023-09-19T05:48:25;100834.89;;;17.59;69.24
42067;BME280;27734;47.028;28.820;2023-09-19T05:53:40;100836.80;;;17.73;69.42
42067;BME280;27734;47.028;28.820;2023-09-19T05:56:23;100839.56;;;17.82;69.32
42067;BME280;27734;47.028;28.820;2023-09-19T05:58:54;100830.84;;;17.89;69.27
42067;BME280;27734;47.028;28.820;2023-09-19T06:01:23;100830.03;;;17.98;69.20
42067;BME280;27734;47.028;28.820;2023-09-19T06:04:00;100832.75;;;18.04;68.77
42067;BME280;27734;47.028;28.820;2023-09-19T06:06:31;100829.28;;;18.10;69.02
42067;BME280;27734;47.028;28.820;2023-09-19T06:09:08;100823.16;;;18.17;68.86
42067;BME280;27734;47.028;28.820;2023-09-19T06:11:38;100809.90;;;18.19;68.53
42067;BME280;27734;47.028;28.820;2023-09-19T06:14:36;100815.33;;;18.31;69.00
42067;BME280;27734;47.028;28.820;2023-09-19T06:21:24;100819.00;;;18.47;68.81
42067;BME280;27734;47.028;28.820;2023-09-19T06:23:56;100819.94;;;18.55;68.67
42067;BME280;27734;47.028;28.820;2023-09-19T06:26:31;100817.33;;;18.61;68.44
42067;BME280;27734;47.028;28.820;2023-09-19T06:29:03;100816.52;;;18.68;68.96
42067;BME280;27734;47.028;28.820;2023-09-19T06:31:43;100822.78;;;18.78;68.26
42067;BME280;27734;47.028;28.820;2023-09-19T06:34:33;100817.55;;;18.86;68.77
42067;BME280;27734;47.028;28.820;2023-09-19T06:37:13;100821.14;;;18.94;68.37
42067;BME280;27734;47.028;28.820;2023-09-19T06:40:23;100822.09;;;19.06;68.01
42067;BME280;27734;47.028;28.820;2023-09-19T06:42:58;100829.23;;;19.13;67.97
42067;BME280;27734;47.028;28.820;2023-09-19T06:45:29;100814.20;;;19.21;67.56
42067;BME280;27734;47.028;28.820;2023-09-19T06:51:28;100816.09;;;19.42;67.48
42067;BME280;27734;47.028;28.820;2023-09-19T06:57:16;100813.52;;;19.65;66.44
42067;BME280;27734;47.028;28.820;2023-09-19T07:02:58;100799.41;;;19.96;66.79
42067;BME280;27734;47.028;28.820;2023-09-19T07:05:55;100802.98;;;20.11;66.61
42067;BME280;27734;47.028;28.820;2023-09-19T07:08:25;100794.13;;;20.28;65.39
42067;BME280;27734;47.028;28.820;2023-09-19T07:10:58;100787.02;;;20.42;64.45
42067;BME280;27734;47.028;28.820;2023-09-19T07:13:37;100787.88;;;20.61;65.04
42067;BME280;27734;47.028;28.820;2023-09-19T07:19:48;100769.16;;;21.09;64.79
42067;BME280;27734;47.028;28.820;2023-09-19T07:22:54;100772.63;;;21.28;63.09
42067;BME280;27734;47.028;28.820;2023-09-19T07:25:47;100745.87;;;21.45;63.11
42067;BME280;27734;47.028;28.820;2023-09-19T07:38:19;100742.66;;;22.29;61.12
42067;BME280;27734;47.028;28.820;2023-09-19T07:41:07;100737.22;;;22.44;60.67
42067;BME280;27734;47.028;28.820;2023-09-19T07:44:11;100735.30;;;22.57;60.09
42067;BME280;27734;47.028;28.820;2023-09-19T07:47:08;100729.75;;;22.77;59.33
42067;BME280;27734;47.028;28.820;2023-09-19T07:49:40;100735.78;;;22.94;59.53
42067;BME280;27734;47.028;28.820;2023-09-19T07:52:16;100730.27;;;23.11;59.22
42067;BME280;27734;47.028;28.820;2023-09-19T07:55:11;100724.66;;;23.31;59.00
42067;BME280;27734;47.028;28.820;2023-09-19T07:57:44;100729.83;;;23.45;59.01
42067;BME280;27734;47.028;28.820;2023-09-19T08:00:24;100736.70;;;23.63;57.67
42067;BME280;27734;47.028;28.820;2023-09-19T08:02:54;100734.78;;;23.72;57.54
42067;BME280;27734;47.028;28.820;2023-09-19T08:05:35;100737.39;;;23.76;57.78
42067;BME280;27734;47.028;28.820;2023-09-19T08:08:05;100727.43;;;23.89;56.56
42067;BME280;27734;47.028;28.820;2023-09-19T08:10:36;100722.82;;;23.97;56.42
42067;BME280;27734;47.028;28.820;2023-09-19T08:13:25;100728.11;;;24.02;55.63
42067;BME280;27734;47.028;28.820;2023-09-19T08:15:54;100719.20;;;24.01;55.18
42067;BME280;27734;47.028;28.820;2023-09-19T08:18:25;100713.76;;;24.06;55.35
42067;BME280;27734;47.028;28.820;2023-09-19T08:20:58;100719.89;;;24.13;54.84
42067;BME280;27734;47.028;28.820;2023-09-19T08:23:28;100704.66;;;24.15;54.38
42067;BME280;27734;47.028;28.820;2023-09-19T08:25:59;100710.84;;;24.20;53.76
42067;BME280;27734;47.028;28.820;2023-09-19T08:28:32;100708.91;;;24.28;53.48
42067;BME280;27734;47.028;28.820;2023-09-19T08:31:03;100702.66;;;24.26;52.01
42067;BME280;27734;47.028;28.820;2023-09-19T08:33:37;100704.33;;;24.33;52.29
42067;BME280;27734;47.028;28.820;2023-09-19T08:36:24;100706.01;;;24.40;52.59
42067;BME280;27734;47.028;28.820;2023-09-19T08:38:54;100708.69;;;24.40;51.98
42067;BME280;27734;47.028;28.820;2023-09-19T08:41:30;100709.61;;;24.38;51.34
42067;BME280;27734;47.028;28.820;2023-09-19T08:44:06;100705.29;;;24.29;51.16
42067;BME280;27734;47.028;28.820;2023-09-19T08:46:42;100695.55;;;24.25;49.76
42067;BME280;27734;47.028;28.820;2023-09-19T08:49:23;100689.42;;;24.18;50.51
42067;BME280;27734;47.028;28.820;2023-09-19T08:52:07;100689.40;;;24.20;50.21
42067;BME280;27734;47.028;28.820;2023-09-19T08:54:44;100695.41;;;24.33;50.35
42067;BME280;27734;47.028;28.820;2023-09-19T08:57:30;100676.45;;;24.44;49.37
42067;BME280;27734;47.028;28.820;2023-09-19T09:00:09;100680.63;;;24.60;49.15
42067;BME280;27734;47.028;28.820;2023-09-19T09:02:47;100683.81;;;24.79;48.28
42067;BME280;27734;47.028;28.820;2023-09-19T09:05:21;100677.33;;;24.91;48.12
42067;BME280;27734;47.028;28.820;2023-09-19T09:10:38;100678.52;;;25.20;47.67
42067;BME280;27734;47.028;28.820;2023-09-19T09:13:26;100680.73;;;25.41;47.30
42067;BME280;27734;47.028;28.820;2023-09-19T09:16:04;100679.64;;;25.50;46.49
42067;BME280;27734;47.028;28.820;2023-09-19T09:18:40;100679.31;;;25.64;46.71
42067;BME280;27734;47.028;28.820;2023-09-19T09:21:33;100678.11;;;25.77;46.02
42067;BME280;27734;47.028;28.820;2023-09-19T09:24:32;100672.59;;;25.82;46.22
42067;BME280;27734;47.028;28.820;2023-09-19T09:27:16;100659.91;;;25.89;45.21
42067;BME280;27734;47.028;28.820;2023-09-19T09:29:56;100660.70;;;25.92;45.25
42067;BME280;27734;47.028;28.820;2023-09-19T09:32:34;100667.97;;;25.89;44.79
42067;BME280;27734;47.028;28.820;2023-09-19T09:35:19;100659.04;;;25.87;44.44
42067;BME280;27734;47.028;28.820;2023-09-19T09:38:02;100660.93;;;25.83;43.67
42067;BME280;27734;47.028;28.820;2023-09-19T09:40:48;100658.80;;;25.96;43.38
42067;BME280;27734;47.028;28.820;2023-09-19T09:43:37;100651.48;;;26.04;41.19
42067;BME280;27734;47.028;28.820;2023-09-19T09:46:23;100644.96;;;26.13;42.84
42067;BME280;27734;47.028;28.820;2023-09-19T09:49:13;100649.39;;;26.15;42.31
42067;BME280;27734;47.028;28.820;2023-09-19T09:52:08;100642.07;;;26.21;41.25
42067;BME280;27734;47.028;28.820;2023-09-19T09:54:59;100641.91;;;26.27;41.13
42067;BME280;27734;47.028;28.820;2023-09-19T09:57:32;100632.09;;;26.26;41.09
42067;BME280;27734;47.028;28.820;2023-09-19T10:00:06;100635.70;;;26.25;40.99
42067;BME280;27734;47.028;28.820;2023-09-19T10:02:48;100629.32;;;26.29;41.06
42067;BME280;27734;47.028;28.820;2023-09-19T10:05:21;100632.75;;;26.34;40.58
42067;BME280;27734;47.028;28.820;2023-09-19T10:08:22;100630.06;;;26.34;40.69
42067;BME280;27734;47.028;28.820;2023-09-19T10:12:06;100625.43;;;26.39;40.22
42067;BME280;27734;47.028;28.820;2023-09-19T10:15:41;100620.62;;;26.50;39.35
42067;BME280;27734;47.028;28.820;2023-09-19T10:18:22;100626.95;;;26.49;39.26
42067;BME280;27734;47.028;28.820;2023-09-19T10:20:51;100600.05;;;26.49;38.88
42067;BME280;27734;47.028;28.820;2023-09-19T10:23:21;100608.95;;;26.51;37.90
42067;BME280;27734;47.028;28.820;2023-09-19T10:25:54;100605.98;;;26.61;37.52
42067;BME280;27734;47.028;28.820;2023-09-19T10:28:28;100613.91;;;26.67;38.04
42067;BME280;27734;47.028;28.820;2023-09-19T10:31:01;100609.09;;;26.78;38.02
42067;BME280;27734;47.028;28.820;2023-09-19T10:33:36;100601.52;;;26.91;37.64
42067;BME280;27734;47.028;28.820;2023-09-19T10:36:13;100593.16;;;27.00;37.22
42067;BME280;27734;47.028;28.820;2023-09-19T10:38:46;100594.79;;;27.06;37.29
42067;BME280;27734;47.028;28.820;2023-09-19T10:41:30;100590.13;;;27.11;36.16
42067;BME280;27734;47.028;28.820;2023-09-19T10:44:06;100583.73;;;27.15;36.90
42067;BME280;27734;47.028;28.820;2023-09-19T10:46:37;100594.31;;;27.21;36.59
42067;BME280;27734;47.028;28.820;2023-09-19T10:49:11;100594.31;;;27.21;36.26
42067;BME280;27734;47.028;28.820;2023-09-19T10:51:45;100578.34;;;27.15;36.41
42067;BME280;27734;47.028;28.820;2023-09-19T10:54:26;100578.48;;;27.11;35.58
42067;BME280;27734;47.028;28.820;2023-09-19T10:56:57;100571.47;;;27.05;35.56
42067;BME280;27734;47.028;28.820;2023-09-19T11:00:03;100567.09;;;27.02;34.99
42067;BME280;27734;47.028;28.820;2023-09-19T11:03:18;100559.06;;;27.01;34.96
42067;BME280;27734;47.028;28.820;2023-09-19T11:06:09;100559.88;;;27.03;35.25
42067;BME280;27734;47.028;28.820;2023-09-19T11:09:04;100550.88;;;27.04;34.52
42067;BME280;27734;47.028;28.820;2023-09-19T11:11:51;100554.05;;;27.17;34.37
42067;BME280;27734;47.028;28.820;2023-09-19T11:14:45;100548.31;;;27.28;35.24
42067;BME280;27734;47.028;28.820;2023-09-19T11:17:47;100549.13;;;27.31;35.44
42067;BME280;27734;47.028;28.820;2023-09-19T11:20:35;100540.98;;;27.33;35.06
42067;BME280;27734;47.028;28.820;2023-09-19T11:23:45;100540.98;;;27.33;35.05
42067;BME280;27734;47.028;28.820;2023-09-19T11:26:43;100546.79;;;27.47;35.07
42067;BME280;27734;47.028;28.820;2023-09-19T11:29:28;100523.12;;;27.57;35.47
42067;BME280;27734;47.028;28.820;2023-09-19T11:32:15;100523.07;;;27.58;34.62
42067;BME280;27734;47.028;28.820;2023-09-19T11:35:11;100528.36;;;27.61;34.82
42067;BME280;27734;47.028;28.820;2023-09-19T11:38:11;100510.52;;;27.57;34.87
42067;BME280;27734;47.028;28.820;2023-09-19T11:44:50;100520.06;;;27.68;34.65
42067;BME280;27734;47.028;28.820;2023-09-19T11:47:32;100509.11;;;27.72;34.39
42067;BME280;27734;47.028;28.820;2023-09-19T11:53:31;100497.89;;;27.85;34.31
42067;BME280;27734;47.028;28.820;2023-09-19T11:56:17;100495.91;;;27.90;34.36
42067;BME280;27734;47.028;28.820;2023-09-19T11:59:23;100494.81;;;27.95;34.39
42067;BME280;27734;47.028;28.820;2023-09-19T12:02:07;100487.63;;;27.96;34.23
42067;BME280;27734;47.028;28.820;2023-09-19T12:05:06;100486.72;;;27.95;34.22
42067;BME280;27734;47.028;28.820;2023-09-19T12:07:49;100480.48;;;27.93;33.89
42067;BME280;27734;47.028;28.820;2023-09-19T12:10:31;100483.29;;;27.90;33.62
42067;BME280;27734;47.028;28.820;2023-09-19T12:13:04;100482.37;;;27.91;33.37
42067;BME280;27734;47.028;28.820;2023-09-19T12:15:41;100483.23;;;27.92;33.54
42067;BME280;27734;47.028;28.820;2023-09-19T12:18:35;100484.25;;;27.89;33.42
42067;BME280;27734;47.028;28.820;2023-09-19T12:21:18;100470.94;;;27.85;33.14
42067;BME280;27734;47.028;28.820;2023-09-19T12:28:08;100470.14;;;27.81;33.29
42067;BME280;27734;47.028;28.820;2023-09-19T12:31:09;100472.78;;;27.83;33.15
42067;BME280;27734;47.028;28.820;2023-09-19T12:33:42;100454.64;;;27.88;33.86
42067;BME280;27734;47.028;28.820;2023-09-19T12:36:30;100478.63;;;27.95;33.36
42067;BME280;27734;47.028;28.820;2023-09-19T12:39:37;100465.70;;;28.05;33.28
42067;BME280;27734;47.028;28.820;2023-09-19T12:42:37;100463.83;;;28.07;33.31
42067;BME280;27734;47.028;28.820;2023-09-19T12:45:17;100445.00;;;28.06;33.06
42067;BME280;27734;47.028;28.820;2023-09-19T12:51:18;100448.57;;;28.06;33.46
42067;BME280;27734;47.028;28.820;2023-09-19T12:54:12;100448.86;;;27.98;33.26
42067;BME280;27734;47.028;28.820;2023-09-19T13:07:02;100432.81;;;27.94;33.67
42067;BME280;27734;47.028;28.820;2023-09-19T13:10:07;100424.70;;;27.95;34.10
42067;BME280;27734;47.028;28.820;2023-09-19T13:12:46;100431.00;;;27.96;34.05
42067;BME280;27734;47.028;28.820;2023-09-19T13:15:29;100430.09;;;27.95;34.36
42067;BME280;27734;47.028;28.820;2023-09-19T13:18:32;100418.64;;;27.89;34.93
42067;BME280;27734;47.028;28.820;2023-09-19T13:21:07;100433.25;;;27.83;35.05
42067;BME280;27734;47.028;28.820;2023-09-19T13:23:43;100432.12;;;27.89;35.22
42067;BME280;27734;47.028;28.820;2023-09-19T13:26:40;100435.38;;;27.98;35.38
42067;BME280;27734;47.028;28.820;2023-09-19T13:29:12;100423.66;;;28.00;35.72
42067;BME280;27734;47.028;28.820;2023-09-19T13:31:47;100420.34;;;27.91;35.57
42067;BME280;27734;47.028;28.820;2023-09-19T13:34:17;100428.19;;;27.99;35.95
42067;BME280;27734;47.028;28.820;2023-09-19T13:39:48;100427.22;;;28.00;35.73
42067;BME280;27734;47.028;28.820;2023-09-19T13:42:19;100425.62;;;27.94;35.85
42067;BME280;27734;47.028;28.820;2023-09-19T13:44:53;100425.16;;;27.83;35.72
42067;BME280;27734;47.028;28.820;2023-09-19T13:47:30;100425.50;;;27.74;35.79
42067;BME280;27734;47.028;28.820;2023-09-19T13:50:13;100415.05;;;27.65;35.97
42067;BME280;27734;47.028;28.820;2023-09-19T13:52:46;100419.87;;;27.55;36.06
42067;BME280;27734;47.028;28.820;2023-09-19T13:55:27;100413.13;;;27.43;36.22
42067;BME280;27734;47.028;28.820;2023-09-19T13:58:01;100412.53;;;27.35;35.88
42067;BME280;27734;47.028;28.820;2023-09-19T14:00:34;100411.81;;;27.28;36.03
42067;BME280;27734;47.028;28.820;2023-09-19T14:03:03;100413.63;;;27.28;36.10
42067;BME280;27734;47.028;28.820;2023-09-19T14:05:33;100400.16;;;27.28;36.33
42067;BME280;27734;47.028;28.820;2023-09-19T14:08:02;100419.02;;;27.28;36.39
42067;BME280;27734;47.028;28.820;2023-09-19T14:10:32;100413.51;;;27.32;36.28
42067;BME280;27734;47.028;28.820;2023-09-19T14:13:06;100425.15;;;27.33;36.17
42067;BME280;27734;47.028;28.820;2023-09-19T14:15:37;100417.97;;;27.33;35.75
42067;BME280;27734;47.028;28.820;2023-09-19T14:18:19;100410.99;;;27.26;35.86
42067;BME280;27734;47.028;28.820;2023-09-19T14:20:56;100402.97;;;27.24;35.86
42067;BME280;27734;47.028;28.820;2023-09-19T14:23:33;100404.95;;;27.19;35.72
42067;BME280;27734;47.028;28.820;2023-09-19T14:26:12;100400.64;;;27.14;35.98
42067;BME280;27734;47.028;28.820;2023-09-19T14:28:40;100402.73;;;27.05;35.56
42067;BME280;27734;47.028;28.820;2023-09-19T14:31:10;100407.37;;;27.00;35.75